Time;durP1;ratioP1;P1;durP2;ratioP2;P2;SDS_P1;SDS_P2;PMS_P1;PMS_P2;Temp;Humidity;BMP_temperature;BMP_pressure;BME280_temperature;BME280_humidity;BME280_pressure;Samples;Min_cycle;Max_cycle;Signal;HPM_P1;HPM_P2
2021/07/09 04:31:38;;;;;;;12.00;4.97;;;15.30;99.90;;;;;;5646749;23;20477;-79
2021/07/09 04:34:05;;;;;;;4.97;4.50;;;15.30;99.90;;;;;;4955660;28;20869;-80
2021/07/09 04:36:30;;;;;;;4.47;4.13;;;15.20;99.90;;;;;;4944410;29;20269;-80
2021/07/09 04:38:56;;;;;;;7.07;4.30;;;15.20;99.90;;;;;;4947979;29;20444;-81
2021/07/09 04:41:21;;;;;;;7.20;5.47;;;15.20;99.90;;;;;;4959701;28;20239;-78
2021/07/09 04:43:47;;;;;;;5.47;3.80;;;15.10;99.90;;;;;;4957350;29;20193;-78
2021/07/09 04:46:13;;;;;;;5.33;4.50;;;15.10;99.90;;;;;;4950465;29;20221;-80
2021/07/09 04:48:38;;;;;;;7.20;6.20;;;15.10;99.90;;;;;;4939705;29;20189;-81
2021/07/09 04:51:04;;;;;;;6.37;4.90;;;15.00;99.90;;;;;;4945524;29;20694;-80
2021/07/09 04:53:30;;;;;;;5.10;4.67;;;15.00;99.90;;;;;;4944210;29;20184;-80
2021/07/09 04:55:56;;;;;;;5.37;4.90;;;15.00;99.90;;;;;;4942627;29;20205;-80
2021/07/09 04:58:22;;;;;;;8.27;4.93;;;15.00;99.90;;;;;;4940216;29;20421;-79
2021/07/09 05:00:48;;;;;;;6.33;4.00;;;15.10;99.90;;;;;;4941177;29;20563;-81
2021/07/09 05:03:14;;;;;;;4.73;4.33;;;15.10;99.90;;;;;;4936069;29;20279;-78
2021/07/09 05:05:40;;;;;;;7.17;4.60;;;15.10;99.90;;;;;;4940163;29;20934;-79
2021/07/09 05:08:06;;;;;;;7.10;4.67;;;15.10;99.90;;;;;;4945497;29;20177;-79
2021/07/09 05:10:32;;;;;;;5.30;4.83;;;15.10;99.90;;;;;;4951018;29;20432;-77
2021/07/09 05:12:58;;;;;;;4.63;4.23;;;15.10;99.90;;;;;;4938562;29;20885;-79
2021/07/09 05:15:24;;;;;;;4.20;3.90;;;15.10;99.90;;;;;;4939808;29;20420;-79
2021/07/09 05:17:49;;;;;;;5.57;4.97;;;15.20;99.90;;;;;;4940601;29;20740;-79
2021/07/09 05:20:15;;;;;;;5.30;4.77;;;15.20;99.90;;;;;;4939504;29;20236;-79
2021/07/09 05:22:42;;;;;;;6.70;4.00;;;15.10;99.90;;;;;;4939959;29;20670;-79
2021/07/09 05:25:08;;;;;;;4.93;4.20;;;15.10;99.90;;;;;;4938421;29;20654;-78
2021/07/09 05:27:34;;;;;;;6.60;4.23;;;15.10;99.90;;;;;;4938324;29;20449;-79
2021/07/09 05:30:00;;;;;;;7.13;4.10;;;15.10;99.90;;;;;;4937140;29;20428;-79
2021/07/09 05:32:27;;;;;;;9.27;4.87;;;15.10;99.90;;;;;;4945173;29;20952;-79
2021/07/09 05:34:54;;;;;;;5.67;4.10;;;15.10;99.90;;;;;;4947909;29;20831;-78
2021/07/09 05:37:20;;;;;;;4.00;3.70;;;15.20;99.90;;;;;;4943834;29;20453;-79
2021/07/09 05:39:46;;;;;;;4.60;4.10;;;15.10;99.90;;;;;;4937120;28;20457;-79
2021/07/09 05:42:12;;;;;;;4.83;4.37;;;15.10;99.90;;;;;;4936489;29;20436;-79
2021/07/09 05:44:38;;;;;;;6.83;4.30;;;15.10;99.90;;;;;;4935943;29;20181;-78
2021/07/09 05:47:04;;;;;;;7.87;4.70;;;15.20;99.90;;;;;;4940652;29;20867;-78
2021/07/09 05:49:29;;;;;;;9.50;4.70;;;15.10;99.90;;;;;;4935920;29;20443;-78
2021/07/09 05:51:55;;;;;;;5.10;4.57;;;15.20;99.90;;;;;;4934783;29;20662;-78
2021/07/09 05:54:20;;;;;;;5.17;4.77;;;15.30;99.90;;;;;;4935843;29;20222;-79
2021/07/09 05:56:46;;;;;;;5.27;4.77;;;15.20;99.90;;;;;;4936311;29;20268;-78
2021/07/09 05:59:12;;;;;;;8.60;5.20;;;15.20;99.90;;;;;;4935832;29;20674;-78
2021/07/09 06:01:37;;;;;;;14.77;5.73;;;15.20;99.90;;;;;;4939432;29;20205;-78
2021/07/09 06:04:03;;;;;;;5.40;4.90;;;15.30;99.90;;;;;;4935216;29;20174;-78
2021/07/09 06:06:28;;;;;;;5.20;4.80;;;15.30;99.90;;;;;;4935755;29;20209;-78
2021/07/09 06:08:54;;;;;;;5.37;4.97;;;15.30;99.90;;;;;;4934701;29;20232;-78
2021/07/09 06:11:20;;;;;;;5.77;5.17;;;15.40;99.90;;;;;;4935347;29;20234;-77
2021/07/09 06:13:45;;;;;;;11.80;5.20;;;15.40;99.90;;;;;;4934440;29;20185;-78
2021/07/09 06:16:11;;;;;;;5.40;4.53;;;15.50;99.90;;;;;;4937537;29;20723;-78
2021/07/09 06:18:36;;;;;;;13.67;6.37;;;15.50;99.90;;;;;;4934967;29;20275;-78
2021/07/09 06:21:02;;;;;;;6.30;5.70;;;15.60;99.90;;;;;;4934901;29;20274;-78
2021/07/09 06:23:28;;;;;;;8.10;7.23;;;15.60;99.90;;;;;;4934427;29;20174;-77
2021/07/09 06:25:54;;;;;;;7.30;5.40;;;15.50;99.90;;;;;;4938446;29;20583;-78
2021/07/09 06:28:19;;;;;;;5.70;5.20;;;15.50;99.90;;;;;;4935126;29;20189;-79
2021/07/09 06:30:45;;;;;;;6.63;5.40;;;15.50;99.90;;;;;;4939929;29;20517;-79
2021/07/09 06:33:12;;;;;;;9.27;5.37;;;15.50;99.90;;;;;;4949297;29;20693;-78
2021/07/09 06:35:38;;;;;;;5.70;5.30;;;15.50;99.90;;;;;;4937832;29;20224;-80
2021/07/09 06:38:04;;;;;;;8.73;6.43;;;15.50;99.90;;;;;;4938393;29;20455;-79
2021/07/09 06:40:30;;;;;;;6.23;5.63;;;15.60;99.90;;;;;;4957058;28;20420;-79
2021/07/09 06:42:55;;;;;;;6.07;5.57;;;15.60;99.90;;;;;;4952481;28;20468;-79
2021/07/09 06:45:21;;;;;;;6.30;5.70;;;15.60;99.90;;;;;;4937922;29;20556;-78
2021/07/09 06:47:47;;;;;;;8.27;5.90;;;15.60;99.90;;;;;;4949719;29;20187;-79
2021/07/09 06:50:13;;;;;;;8.10;5.83;;;15.60;99.90;;;;;;4941690;29;20212;-78
2021/07/09 06:52:41;;;;;;;5.13;4.83;;;15.70;99.90;;;;;;4938355;29;20950;-78
2021/07/09 06:55:07;;;;;;;7.10;5.50;;;15.70;99.90;;;;;;4936515;29;20408;-79
2021/07/09 06:57:32;;;;;;;9.07;6.60;;;15.70;99.90;;;;;;4937172;29;20501;-79
2021/07/09 06:59:58;;;;;;;6.97;6.03;;;15.70;99.90;;;;;;4938520;29;20430;-78
2021/07/09 07:02:23;;;;;;;8.03;7.27;;;15.70;99.90;;;;;;4935526;29;20255;-79
2021/07/09 07:04:50;;;;;;;8.13;6.60;;;15.80;99.90;;;;;;4938259;29;20174;-78
2021/07/09 07:07:16;;;;;;;5.93;5.33;;;15.90;99.90;;;;;;4938344;29;20229;-79
2021/07/09 07:09:42;;;;;;;7.97;7.27;;;16.10;99.90;;;;;;4937927;29;20398;-79
2021/07/09 07:12:08;;;;;;;6.97;6.27;;;16.20;99.90;;;;;;4937454;29;21235;-78
2021/07/09 07:14:35;;;;;;;6.90;5.70;;;16.30;99.90;;;;;;4937245;29;20424;-79
2021/07/09 07:17:02;;;;;;;8.40;5.93;;;16.40;99.90;;;;;;4936976;29;20467;-79
2021/07/09 07:19:28;;;;;;;6.50;5.90;;;16.40;99.90;;;;;;4937950;29;20921;-78
2021/07/09 07:21:53;;;;;;;6.30;5.80;;;16.50;99.90;;;;;;4937305;29;20432;-78
2021/07/09 07:24:20;;;;;;;7.07;6.30;;;16.50;99.90;;;;;;4935839;29;20186;-79
2021/07/09 07:26:45;;;;;;;6.23;5.70;;;16.60;99.90;;;;;;4937380;29;20653;-79
2021/07/09 07:29:11;;;;;;;6.73;6.03;;;16.70;99.90;;;;;;4937392;29;20423;-78
2021/07/09 07:31:36;;;;;;;6.20;5.60;;;16.80;99.90;;;;;;4937186;29;20221;-79
2021/07/09 07:34:02;;;;;;;8.50;5.87;;;16.90;99.90;;;;;;4936694;29;20185;-79
2021/07/09 07:36:27;;;;;;;6.80;6.20;;;17.00;99.90;;;;;;4936324;29;20272;-79
2021/07/09 07:38:53;;;;;;;6.30;5.80;;;17.10;99.90;;;;;;4936499;29;20181;-78
2021/07/09 07:41:19;;;;;;;6.57;6.07;;;17.20;99.90;;;;;;4935826;29;20620;-78
2021/07/09 07:43:46;;;;;;;7.47;5.20;;;17.40;99.90;;;;;;4936085;29;20197;-79
2021/07/09 07:46:13;;;;;;;6.83;6.13;;;17.40;99.90;;;;;;4936887;29;20417;-79
2021/07/09 07:48:39;;;;;;;8.33;5.53;;;17.50;99.90;;;;;;4935412;29;20500;-79
2021/07/09 07:51:04;;;;;;;5.00;4.60;;;17.50;99.90;;;;;;4936379;29;20936;-79
2021/07/09 07:53:34;;;;;;;5.33;4.97;;;17.60;99.90;;;;;;4936134;29;20609;-78
2021/07/09 07:56:04;;;;;;;4.80;4.40;;;17.60;99.90;;;;;;4935936;29;20244;-78
2021/07/09 07:58:29;;;;;;;4.90;4.60;;;17.60;99.90;;;;;;4936235;29;20440;-79
2021/07/09 08:00:55;;;;;;;5.77;5.27;;;17.70;99.90;;;;;;4937154;29;20438;-79
2021/07/09 08:03:21;;;;;;;5.33;4.93;;;17.80;99.90;;;;;;4935692;29;20185;-79
2021/07/09 08:05:46;;;;;;;4.97;4.57;;;17.80;99.90;;;;;;4936489;29;20271;-79
2021/07/09 08:08:12;;;;;;;5.27;4.87;;;17.90;99.90;;;;;;4944805;29;20192;-79
2021/07/09 08:10:37;;;;;;;4.33;4.00;;;18.00;99.90;;;;;;4955995;28;20557;-77
2021/07/09 08:13:03;;;;;;;5.33;3.90;;;18.10;99.90;;;;;;4955003;28;20233;-77
2021/07/09 08:15:29;;;;;;;4.67;4.30;;;18.20;99.90;;;;;;4936231;29;20209;-78
2021/07/09 08:17:54;;;;;;;4.60;4.20;;;18.20;99.90;;;;;;4935497;29;20666;-77
2021/07/09 08:20:20;;;;;;;4.77;4.20;;;18.10;99.90;;;;;;4935686;29;20176;-77
2021/07/09 08:22:45;;;;;;;4.83;4.40;;;18.20;99.90;;;;;;4937619;29;20707;-77
2021/07/09 08:25:12;;;;;;;5.77;3.90;;;18.20;99.90;;;;;;4937036;28;20215;-77
2021/07/09 08:27:39;;;;;;;9.50;4.87;;;18.40;99.90;;;;;;4937074;29;20212;-77
2021/07/09 08:30:06;;;;;;;5.83;3.70;;;18.40;99.90;;;;;;4935053;29;20460;-77
2021/07/09 08:32:33;;;;;;;4.27;3.97;;;18.60;99.90;;;;;;4935490;29;20449;-76
2021/07/09 08:34:59;;;;;;;5.63;4.20;;;18.80;99.90;;;;;;4935133;29;20487;-76
2021/07/09 08:37:24;;;;;;;4.30;3.90;;;19.10;99.90;;;;;;4934794;29;20560;-76
2021/07/09 08:39:50;;;;;;;6.60;5.47;;;19.40;99.90;;;;;;4934866;29;20177;-78
2021/07/09 08:42:15;;;;;;;5.03;4.20;;;19.60;99.90;;;;;;4935442;29;20245;-76
2021/07/09 08:44:41;;;;;;;7.93;4.87;;;19.70;99.90;;;;;;4934915;29;20261;-77
2021/07/09 08:47:06;;;;;;;5.53;5.00;;;19.70;99.90;;;;;;4934542;29;20299;-77
2021/07/09 08:49:33;;;;;;;4.70;4.30;;;19.80;99.90;;;;;;4935593;29;20561;-77
2021/07/09 08:51:58;;;;;;;4.80;4.40;;;20.00;99.90;;;;;;4934741;29;20228;-77
2021/07/09 08:54:24;;;;;;;5.10;4.00;;;20.20;99.90;;;;;;4935032;29;20788;-76
2021/07/09 08:56:51;;;;;;;4.77;4.47;;;20.40;99.90;;;;;;4934577;29;20768;-77
2021/07/09 08:59:18;;;;;;;4.53;4.23;;;20.50;99.90;;;;;;4934615;29;20202;-76
2021/07/09 09:01:51;;;;;;;5.43;4.93;;;20.40;99.90;;;;;;4932637;29;20441;-77
2021/07/09 09:04:27;;;;;;;4.30;3.90;;;20.40;99.90;;;;;;4920955;29;20807;-77
2021/07/09 09:07:07;;;;;;;5.53;4.57;;;20.60;99.90;;;;;;4926070;29;21548;-76
2021/07/09 09:09:34;;;;;;;5.10;4.67;;;20.60;99.90;;;;;;4931684;29;20423;-77
2021/07/09 09:12:16;;;;;;;4.47;4.07;;;20.60;99.90;;;;;;4936737;29;20453;-76
2021/07/09 09:14:47;;;;;;;5.80;4.67;;;20.60;99.90;;;;;;4934111;29;20461;-77
2021/07/09 09:17:37;;;;;;;4.77;4.37;;;20.70;99.90;;;;;;4933274;29;20469;-77
2021/07/09 09:20:14;;;;;;;4.80;4.50;;;20.80;99.90;;;;;;4933656;29;20451;-76
2021/07/09 09:22:49;;;;;;;4.80;4.40;;;20.50;99.90;;;;;;4934219;29;20801;-76
2021/07/09 09:25:31;;;;;;;5.37;4.47;;;20.50;99.90;;;;;;4934315;29;20503;-77
2021/07/09 09:28:01;;;;;;;5.47;5.03;;;20.60;99.90;;;;;;4933996;29;20405;-77
2021/07/09 09:30:28;;;;;;;9.57;4.80;;;20.50;99.90;;;;;;4934307;29;20786;-77
2021/07/09 09:32:54;;;;;;;5.80;5.07;;;20.50;99.90;;;;;;4933884;29;20875;-76
2021/07/09 09:35:26;;;;;;;6.17;4.73;;;20.60;99.90;;;;;;4934535;29;20469;-77
2021/07/09 09:38:01;;;;;;;4.63;4.00;;;20.90;99.90;;;;;;4930625;29;20272;-77
2021/07/09 09:40:28;;;;;;;5.20;3.97;;;21.20;99.90;;;;;;4933520;29;20432;-77
2021/07/09 09:42:55;;;;;;;4.60;4.30;;;21.10;99.90;;;;;;4933722;29;20434;-77
2021/07/09 09:45:24;;;;;;;5.83;5.30;;;20.80;99.90;;;;;;4934068;29;20456;-77
2021/07/09 09:47:50;;;;;;;4.43;4.03;;;20.80;99.90;;;;;;4933099;29;20824;-77
2021/07/09 09:50:18;;;;;;;4.40;4.10;;;20.70;99.90;;;;;;4934094;29;20428;-77
2021/07/09 09:52:51;;;;;;;4.33;3.97;;;20.70;99.90;;;;;;4933954;29;20509;-76
2021/07/09 09:55:22;;;;;;;8.07;4.33;;;20.90;99.90;;;;;;4932879;29;20421;-77
2021/07/09 09:58:10;;;;;;;4.63;3.67;;;21.20;99.90;;;;;;4933972;29;20437;-77
2021/07/09 10:00:37;;;;;;;5.00;4.50;;;21.50;99.90;;;;;;4935593;29;20413;-76
2021/07/09 10:03:04;;;;;;;4.73;4.33;;;22.10;99.90;;;;;;4937535;29;20409;-77
2021/07/09 10:05:33;;;;;;;3.90;3.67;;;22.10;99.90;;;;;;4937199;29;20413;-77
2021/07/09 10:08:00;;;;;;;4.77;4.30;;;22.10;99.90;;;;;;4937331;29;20814;-77
2021/07/09 10:10:27;;;;;;;6.47;3.70;;;21.90;99.90;;;;;;4936362;29;20504;-77
2021/07/09 10:12:54;;;;;;;3.87;3.53;;;21.70;99.90;;;;;;4937473;29;20616;-76
2021/07/09 10:15:19;;;;;;;5.33;4.40;;;21.70;99.90;;;;;;4937613;29;20456;-77
2021/07/09 10:17:49;;;;;;;12.90;4.90;;;22.00;99.90;;;;;;4937521;29;20594;-77
2021/07/09 10:20:16;;;;;;;6.20;4.50;;;22.40;99.90;;;;;;4937676;29;20205;-77
2021/07/09 10:22:44;;;;;;;4.37;3.93;;;23.40;99.90;;;;;;4937411;29;20507;-75
2021/07/09 10:25:11;;;;;;;4.60;4.30;;;23.90;99.90;;;;;;4937624;29;20421;-77
2021/07/09 10:27:40;;;;;;;4.13;3.73;;;24.70;99.90;;;;;;4937581;29;20420;-77
2021/07/09 10:30:06;;;;;;;9.17;4.37;;;25.20;99.90;;;;;;4937386;29;20417;-77
2021/07/09 10:32:39;;;;;;;5.50;4.53;;;24.90;99.90;;;;;;4937319;29;20492;-76
2021/07/09 10:35:07;;;;;;;5.87;3.80;;;24.30;99.90;;;;;;4937706;29;20545;-77
2021/07/09 10:37:33;;;;;;;6.13;5.30;;;23.80;99.90;;;;;;4937154;29;21109;-77
2021/07/09 10:40:08;;;;;;;10.27;6.00;;;23.40;99.90;;;;;;4937325;29;20508;-77
2021/07/09 10:42:41;;;;;;;8.03;6.57;;;23.20;99.90;;;;;;4937490;29;20276;-78
2021/07/09 10:45:24;;;;;;;9.70;6.83;;;23.00;99.90;;;;;;4937320;29;20417;-77
2021/07/09 10:47:51;;;;;;;8.50;6.87;;;22.80;99.90;;;;;;4937182;29;20423;-77
2021/07/09 10:50:23;;;;;;;7.97;6.00;;;22.50;99.90;;;;;;4940066;29;20487;-77
2021/07/09 10:52:54;;;;;;;10.80;6.67;;;22.20;99.90;;;;;;4940348;29;20441;-77
2021/07/09 10:55:29;;;;;;;6.90;6.20;;;22.00;99.90;;;;;;4937166;29;20441;-77
2021/07/09 10:58:06;;;;;;;9.00;5.73;;;22.10;99.90;;;;;;4937044;29;20516;-77
2021/07/09 11:00:44;;;;;;;6.50;5.90;;;22.20;99.90;;;;;;4936722;29;20459;-77
2021/07/09 11:03:10;;;;;;;10.23;7.07;;;22.30;99.90;;;;;;4936775;29;20888;-77
2021/07/09 11:05:42;;;;;;;6.77;6.00;;;22.60;99.90;;;;;;4936633;29;20410;-77
2021/07/09 11:08:29;;;;;;;6.60;5.97;;;23.40;99.90;;;;;;4936791;29;20913;-77
2021/07/09 11:11:06;;;;;;;6.80;6.10;;;24.30;99.90;;;;;;4936100;29;20433;-77
2021/07/09 11:13:41;;;;;;;7.43;6.63;;;24.20;99.90;;;;;;4936050;29;20401;-77
2021/07/09 11:16:35;;;;;;;8.80;7.03;;;23.80;99.90;;;;;;4937014;29;20468;-78
2021/07/09 11:19:03;;;;;;;10.30;6.43;;;23.50;99.90;;;;;;4936628;29;20432;-77
2021/07/09 11:21:31;;;;;;;7.43;6.83;;;23.70;99.90;;;;;;4936752;29;20452;-77
2021/07/09 11:23:58;;;;;;;6.50;5.90;;;23.90;99.90;;;;;;4936218;29;20417;-77
2021/07/09 11:26:25;;;;;;;6.50;5.90;;;23.70;99.90;;;;;;4936360;29;20418;-77
2021/07/09 11:28:51;;;;;;;13.17;8.30;;;23.30;99.90;;;;;;4936122;29;20421;-77
2021/07/09 11:31:32;;;;;;;7.80;7.03;;;23.20;99.90;;;;;;4936289;29;20468;-77
2021/07/09 11:34:04;;;;;;;9.00;7.90;;;22.80;99.90;;;;;;4936039;29;20714;-77
2021/07/09 11:36:40;;;;;;;6.90;6.30;;;22.40;99.90;;;;;;4934947;29;20536;-77
2021/07/09 11:39:11;;;;;;;7.87;7.13;;;22.30;99.90;;;;;;4936136;29;20842;-77
2021/07/09 11:41:49;;;;;;;8.63;7.70;;;22.70;99.90;;;;;;4935815;29;20466;-77
2021/07/09 11:44:16;;;;;;;7.03;6.33;;;23.60;99.90;;;;;;4935961;29;20846;-77
2021/07/09 11:46:41;;;;;;;9.10;8.30;;;24.10;99.90;;;;;;4936269;29;20421;-78
2021/07/09 11:49:07;;;;;;;25.90;13.63;;;24.00;99.90;;;;;;4936766;29;20475;-79
2021/07/09 11:51:33;;;;;;;13.13;11.80;;;23.20;99.90;;;;;;4937375;29;20208;-79
2021/07/09 11:54:08;;;;;;;13.60;12.43;;;22.30;99.90;;;;;;4935756;29;20189;-79
2021/07/09 11:56:41;;;;;;;14.70;13.17;;;21.50;99.90;;;;;;4936216;29;20526;-78
2021/07/09 11:59:17;;;;;;;18.10;13.60;;;21.20;99.90;;;;;;4934997;29;20429;-78
2021/07/09 12:01:43;;;;;;;11.07;10.00;;;21.30;99.90;;;;;;4936087;29;20862;-78
2021/07/09 12:04:09;;;;;;;12.77;11.50;;;21.50;99.90;;;;;;4935237;29;20417;-78
2021/07/09 12:06:34;;;;;;;12.83;11.67;;;21.70;99.90;;;;;;4936119;29;20189;-78
2021/07/09 12:09:00;;;;;;;16.73;13.20;;;21.40;99.90;;;;;;4935749;29;20505;-78
2021/07/09 12:11:26;;;;;;;15.20;12.13;;;21.30;99.90;;;;;;4935974;29;20205;-77
2021/07/09 12:14:07;;;;;;;20.33;13.77;;;21.40;99.90;;;;;;4935466;29;20571;-77
2021/07/09 12:16:33;;;;;;;16.10;14.50;;;21.20;99.90;;;;;;4935699;29;20560;-77
2021/07/09 12:19:02;;;;;;;19.97;13.40;;;21.00;99.90;;;;;;4935314;29;20429;-77
2021/07/09 12:21:28;;;;;;;14.27;12.77;;;20.90;99.90;;;;;;4935377;29;20512;-77
2021/07/09 12:24:01;;;;;;;18.53;12.77;;;20.80;99.90;;;;;;4934966;29;20421;-78
2021/07/09 12:26:28;;;;;;;14.70;11.73;;;20.80;99.90;;;;;;4934787;29;20325;-78
2021/07/09 12:28:53;;;;;;;11.90;10.80;;;20.70;99.90;;;;;;4935362;29;20457;-77
2021/07/09 12:31:19;;;;;;;11.07;9.97;;;20.90;99.90;;;;;;4936058;29;20488;-77
2021/07/09 12:33:51;;;;;;;11.13;10.00;;;21.20;99.90;;;;;;4935392;29;20197;-78
2021/07/09 12:36:20;;;;;;;10.80;9.13;;;21.60;99.90;;;;;;4935384;29;20272;-77
2021/07/09 12:38:59;;;;;;;13.17;9.17;;;22.00;99.90;;;;;;4935171;29;20449;-77
2021/07/09 12:41:34;;;;;;;7.50;6.90;;;22.40;99.90;;;;;;4935021;29;20433;-77
2021/07/09 12:44:07;;;;;;;6.00;5.60;;;22.70;99.90;;;;;;4934996;29;20427;-77
2021/07/09 12:46:34;;;;;;;6.53;4.50;;;22.90;99.90;;;;;;4935166;29;20417;-77
2021/07/09 12:49:05;;;;;;;5.80;5.27;;;23.00;99.90;;;;;;4935040;29;20429;-77
2021/07/09 12:51:33;;;;;;;6.73;6.13;;;23.00;99.90;;;;;;4935070;29;20455;-77
2021/07/09 12:54:00;;;;;;;7.67;5.83;;;23.20;99.90;;;;;;4934624;29;20431;-77
2021/07/09 12:56:33;;;;;;;5.73;5.17;;;23.30;99.90;;;;;;4934844;29;20469;-76
2021/07/09 12:59:06;;;;;;;5.03;4.73;;;23.30;99.90;;;;;;4934366;29;20651;-76
2021/07/09 13:01:35;;;;;;;4.57;4.17;;;23.40;99.90;;;;;;4934490;29;20521;-76
2021/07/09 13:04:00;;;;;;;6.30;4.80;;;23.40;99.90;;;;;;4934288;29;20795;-76
2021/07/09 13:06:29;;;;;;;5.47;5.07;;;23.20;99.90;;;;;;4934752;29;20453;-76
2021/07/09 13:09:10;;;;;;;5.43;4.50;;;22.90;99.90;;;;;;4934279;29;20182;-76
2021/07/09 13:11:41;;;;;;;7.03;4.73;;;22.70;99.90;;;;;;4934498;29;20521;-76
2021/07/09 13:14:07;;;;;;;3.97;3.77;;;22.60;99.90;;;;;;4934066;29;20451;-76
2021/07/09 13:16:51;;;;;;;12.83;5.63;;;22.60;99.90;;;;;;4934412;29;20468;-76
2021/07/09 13:19:37;;;;;;;4.67;4.10;;;22.50;99.90;;;;;;4933063;29;20421;-76
2021/07/09 13:22:09;;;;;;;4.60;4.00;;;22.50;99.90;;;;;;4934252;29;20445;-76
2021/07/09 13:24:41;;;;;;;5.00;4.33;;;22.60;99.90;;;;;;4934300;29;20417;-76
2021/07/09 13:27:28;;;;;;;4.30;3.90;;;22.90;99.90;;;;;;4934527;29;20421;-76
2021/07/09 13:29:59;;;;;;;5.70;5.03;;;23.10;99.90;;;;;;4934484;29;20867;-76
2021/07/09 13:32:30;;;;;;;5.60;4.90;;;23.00;99.90;;;;;;4935569;29;20460;-76
2021/07/09 13:34:56;;;;;;;5.30;4.93;;;23.00;99.90;;;;;;4933253;29;20427;-76
2021/07/09 13:37:21;;;;;;;8.33;5.50;;;23.00;99.90;;;;;;4934110;29;20559;-76
2021/07/09 13:39:47;;;;;;;6.00;4.50;;;23.10;99.90;;;;;;4934139;29;20204;-76
2021/07/09 13:42:12;;;;;;;7.20;4.53;;;23.30;99.90;;;;;;4934322;29;20252;-76
2021/07/09 13:44:38;;;;;;;5.83;5.40;;;23.40;99.90;;;;;;4934238;29;20272;-76
2021/07/09 13:47:03;;;;;;;4.77;4.37;;;23.50;99.90;;;;;;4934236;29;20184;-76
2021/07/09 13:49:29;;;;;;;5.70;5.20;;;23.40;99.90;;;;;;4934081;29;20177;-76
2021/07/09 13:51:55;;;;;;;5.93;5.10;;;23.30;99.90;;;;;;4933396;29;20588;-76
2021/07/09 13:54:20;;;;;;;5.53;4.97;;;23.40;99.90;;;;;;4933795;29;20580;-76
2021/07/09 13:56:46;;;;;;;4.80;4.00;;;23.20;99.90;;;;;;4933948;29;20295;-76
2021/07/09 13:59:11;;;;;;;5.30;4.80;;;23.00;99.90;;;;;;4933835;29;20662;-76
2021/07/09 14:01:37;;;;;;;3.90;3.67;;;22.80;99.90;;;;;;4934102;29;20202;-76
2021/07/09 14:04:02;;;;;;;4.50;3.40;;;22.60;99.90;;;;;;4933542;29;20227;-76
2021/07/09 14:06:28;;;;;;;6.10;3.50;;;22.50;99.90;;;;;;4934243;29;20228;-76
2021/07/09 14:08:53;;;;;;;7.03;3.27;;;22.40;99.90;;;;;;4934025;29;20370;-76
2021/07/09 14:11:19;;;;;;;4.03;3.27;;;22.40;99.90;;;;;;4934025;29;20209;-76
2021/07/09 14:13:44;;;;;;;3.90;3.60;;;22.10;99.90;;;;;;4933494;29;20641;-76
2021/07/09 14:16:10;;;;;;;8.43;3.30;;;22.20;99.90;;;;;;4933978;29;20725;-76
2021/07/09 14:18:35;;;;;;;4.30;4.00;;;22.30;99.90;;;;;;4934257;29;20173;-77
2021/07/09 14:21:01;;;;;;;3.90;3.63;;;22.40;99.90;;;;;;4933762;29;20257;-77
2021/07/09 14:23:26;;;;;;;4.63;4.20;;;22.50;99.90;;;;;;4933671;29;20435;-76
2021/07/09 14:25:52;;;;;;;8.30;4.13;;;22.50;99.90;;;;;;4933555;29;20177;-77
2021/07/09 14:28:19;;;;;;;5.13;4.13;;;22.40;99.90;;;;;;4933838;29;20233;-77
2021/07/09 14:30:45;;;;;;;7.43;4.23;;;22.30;99.90;;;;;;4932347;29;20182;-77
2021/07/09 14:33:11;;;;;;;4.20;3.90;;;22.50;99.90;;;;;;4933656;29;20437;-77
2021/07/09 14:35:37;;;;;;;3.83;3.63;;;22.40;99.90;;;;;;4933467;29;20429;-77
2021/07/09 14:38:04;;;;;;;4.80;3.87;;;22.40;99.90;;;;;;4933800;29;20895;-77
2021/07/09 14:40:31;;;;;;;3.80;3.60;;;22.40;99.90;;;;;;4933805;29;20212;-77
2021/07/09 14:42:57;;;;;;;4.40;4.00;;;22.40;99.90;;;;;;4933185;29;20524;-77
2021/07/09 14:45:23;;;;;;;4.00;3.80;;;22.40;99.90;;;;;;4932397;29;20444;-77
2021/07/09 14:47:48;;;;;;;3.80;3.60;;;22.40;99.90;;;;;;4937122;29;21107;-77
2021/07/09 14:50:17;;;;;;;5.27;3.73;;;22.30;99.90;;;;;;4937188;29;20598;-77
2021/07/09 14:52:43;;;;;;;4.90;4.50;;;22.20;99.90;;;;;;4935473;29;20546;-76
2021/07/09 14:55:11;;;;;;;4.67;4.23;;;22.20;99.90;;;;;;4937070;29;20961;-77
2021/07/09 14:57:37;;;;;;;5.50;4.57;;;22.10;99.90;;;;;;4936921;29;20469;-76
2021/07/09 15:00:05;;;;;;;5.60;5.07;;;22.10;99.90;;;;;;4936876;29;20417;-76
2021/07/09 15:02:30;;;;;;;5.60;4.10;;;22.20;99.90;;;;;;4936820;29;20524;-76
2021/07/09 15:04:56;;;;;;;4.70;4.30;;;22.10;99.90;;;;;;4936766;29;20903;-77
2021/07/09 15:07:21;;;;;;;6.13;4.63;;;21.90;99.90;;;;;;4937006;29;20263;-77
2021/07/09 15:09:47;;;;;;;5.83;4.10;;;21.80;99.90;;;;;;4936628;29;20182;-77
2021/07/09 15:12:12;;;;;;;4.20;3.03;;;21.70;99.90;;;;;;4937073;29;20571;-76
2021/07/09 15:14:38;;;;;;;4.30;4.00;;;21.70;99.90;;;;;;4936464;29;20181;-77
2021/07/09 15:17:04;;;;;;;5.90;3.30;;;21.40;99.90;;;;;;4936519;29;20209;-77
2021/07/09 15:19:31;;;;;;;3.93;3.10;;;21.40;99.90;;;;;;4935395;29;20241;-77
2021/07/09 15:21:57;;;;;;;4.37;4.00;;;21.40;99.90;;;;;;4936442;29;20437;-77
2021/07/09 15:24:23;;;;;;;4.90;3.30;;;21.40;99.90;;;;;;4936570;29;20765;-76
2021/07/09 15:26:48;;;;;;;4.03;3.47;;;21.40;99.90;;;;;;4937167;29;20472;-77
2021/07/09 15:29:14;;;;;;;4.23;3.00;;;21.40;99.90;;;;;;4936722;29;20650;-77
2021/07/09 15:31:40;;;;;;;3.60;3.40;;;21.40;99.90;;;;;;4936257;29;20212;-77
2021/07/09 15:34:05;;;;;;;3.97;2.80;;;21.40;99.90;;;;;;4935006;29;21018;-77
2021/07/09 15:36:31;;;;;;;3.77;3.47;;;21.40;99.90;;;;;;4936632;29;20778;-77
2021/07/09 15:38:57;;;;;;;3.50;3.30;;;21.40;99.90;;;;;;4941203;29;20244;-76
2021/07/09 15:41:22;;;;;;;3.97;3.67;;;21.40;99.90;;;;;;4943256;29;20200;-76
2021/07/09 15:43:48;;;;;;;11.40;3.70;;;21.40;99.90;;;;;;4937081;29;20190;-77
2021/07/09 15:46:13;;;;;;;4.70;4.10;;;21.30;99.90;;;;;;4936324;29;20188;-77
2021/07/09 15:48:39;;;;;;;3.40;3.10;;;21.10;99.90;;;;;;4936119;29;20181;-76
2021/07/09 15:51:05;;;;;;;3.60;3.23;;;21.00;99.90;;;;;;4936084;29;20201;-77
2021/07/09 15:53:30;;;;;;;3.37;2.83;;;21.00;99.90;;;;;;4936165;29;20655;-76
2021/07/09 15:55:56;;;;;;;3.50;2.90;;;20.90;99.90;;;;;;4935801;29;20201;-76
2021/07/09 15:58:21;;;;;;;4.10;3.67;;;20.90;99.90;;;;;;4935224;29;20253;-77
2021/07/09 16:00:48;;;;;;;6.90;3.70;;;20.90;99.90;;;;;;4936182;29;20174;-76
2021/07/09 16:03:14;;;;;;;5.63;3.40;;;20.90;99.90;;;;;;4935961;29;20224;-76
2021/07/09 16:05:40;;;;;;;4.13;3.73;;;21.00;99.90;;;;;;4936279;29;20409;-77
2021/07/09 16:08:06;;;;;;;3.43;3.23;;;21.10;99.90;;;;;;4935945;29;20425;-77
2021/07/09 16:10:32;;;;;;;3.53;3.20;;;21.20;99.90;;;;;;4936043;29;20517;-77
2021/07/09 16:12:58;;;;;;;3.87;3.60;;;21.20;99.90;;;;;;4936394;29;20475;-77
2021/07/09 16:15:23;;;;;;;3.70;3.20;;;21.20;99.90;;;;;;4936684;29;20500;-77
2021/07/09 16:17:49;;;;;;;5.10;4.07;;;21.30;99.90;;;;;;4936137;29;20248;-76
2021/07/09 16:20:15;;;;;;;5.73;3.73;;;21.40;99.90;;;;;;4937169;29;20718;-76
2021/07/09 16:22:41;;;;;;;5.20;4.47;;;21.50;99.90;;;;;;4938094;29;20568;-77
2021/07/09 16:25:07;;;;;;;5.70;5.20;;;21.60;99.90;;;;;;4936006;29;20414;-76
2021/07/09 16:27:33;;;;;;;5.20;4.70;;;21.50;99.90;;;;;;4935833;29;20618;-77
2021/07/09 16:29:59;;;;;;;5.73;5.10;;;21.50;99.90;;;;;;4935678;29;20455;-76
2021/07/09 16:32:25;;;;;;;6.47;5.80;;;21.40;99.90;;;;;;4935889;29;20316;-77
2021/07/09 16:34:51;;;;;;;5.73;5.23;;;21.30;99.90;;;;;;4935408;29;20551;-76
2021/07/09 16:37:17;;;;;;;5.03;4.60;;;21.30;99.90;;;;;;4935802;29;20978;-77
2021/07/09 16:39:43;;;;;;;4.73;4.30;;;21.30;99.90;;;;;;4935479;29;20429;-77
2021/07/09 16:42:10;;;;;;;7.07;5.07;;;21.40;99.90;;;;;;4935122;29;20244;-77
2021/07/09 16:44:36;;;;;;;4.40;4.10;;;21.40;99.90;;;;;;4935318;29;20424;-76
2021/07/09 16:47:04;;;;;;;4.90;4.40;;;21.30;99.90;;;;;;4934910;29;20417;-76
2021/07/09 16:49:30;;;;;;;5.30;4.00;;;21.30;99.90;;;;;;4934870;29;20417;-77
2021/07/09 16:51:55;;;;;;;4.17;3.90;;;21.40;99.90;;;;;;4934687;29;20527;-77
2021/07/09 16:54:21;;;;;;;4.27;3.97;;;21.40;99.90;;;;;;4935006;29;20872;-76
2021/07/09 16:56:46;;;;;;;3.30;3.10;;;21.20;99.90;;;;;;4933790;29;20566;-77
2021/07/09 16:59:12;;;;;;;3.30;3.10;;;21.00;99.90;;;;;;4934805;29;20180;-76
2021/07/09 17:01:37;;;;;;;5.87;3.43;;;20.80;99.90;;;;;;4933764;29;20227;-76
2021/07/09 17:04:03;;;;;;;4.50;2.83;;;20.60;99.90;;;;;;4933232;29;20292;-77
2021/07/09 17:06:29;;;;;;;6.43;4.17;;;20.30;99.90;;;;;;4935062;29;20184;-76
2021/07/09 17:08:54;;;;;;;3.57;3.27;;;20.30;99.90;;;;;;4934650;29;20189;-77
2021/07/09 17:11:20;;;;;;;4.10;3.83;;;20.20;99.90;;;;;;4934182;29;20197;-77
2021/07/09 17:13:45;;;;;;;4.23;3.83;;;20.10;99.90;;;;;;4934386;29;20184;-77
2021/07/09 17:16:11;;;;;;;4.67;3.67;;;20.00;99.90;;;;;;4933449;29;20236;-77
2021/07/09 17:18:36;;;;;;;3.60;3.40;;;19.80;99.90;;;;;;4934441;29;20181;-77